EPWR/WRO METAR and TAF weather

Enter ICAO airport designator
Station Type Date Time Source
EPWR METAR 2020/11/27 15:00 UTC NOAA

EPWR 271500Z 24004KT 2000 -RA BR OVC003 04/04 Q1021


Station Type Date Time Source
EPWR Decoded METAR 2020/11/27 15:00 UTC NOAA

Wroclaw Ii, Poland (EPWR) 51-06N 016-53E 121M
Nov 27, 2020 - 10:00 AM EST / 2020.11.27 1500 UTC
Wind: from the WSW (240 degrees) at 5 MPH (4 KT):0
Visibility: 1 mile(s):0
Sky conditions: overcast
Weather: light rain; mist
Temperature: 39 F (4 C)
Dew Point: 39 F (4 C)
Relative Humidity: 100%
Pressure (altimeter): 30.15 in. Hg (1021 hPa)
ob: EPWR 271500Z 24004KT 2000 -RA BR OVC003 04/04 Q1021
cycle: 15

Station Type Date Time Source
EPWR TAF 2020/11/27 15:33 UTC NOAA

TAF EPWR 271430Z 2715/2815 24006KT 6000 OVC009
BECMG 2715/2718 2000 RA DZ BR BKN004 PROB40
TEMPO 2719/2803 0300 FG BKN001
BECMG 2803/2806 32010KT 7000 NSW SCT009 BKN020

Example: see airport list